createdAt,value
2023-05-17T00:00:30.029Z,101131.63
2023-05-17T00:02:59.140Z,101133.84
2023-05-17T00:05:28.446Z,101134.50
2023-05-17T00:07:57.591Z,101133.28
2023-05-17T00:10:27.443Z,101131.41
2023-05-17T00:12:57.370Z,101138.69
2023-05-17T00:15:27.104Z,101128.81
2023-05-17T00:17:56.864Z,101127.69
2023-05-17T00:20:26.686Z,101114.38
2023-05-17T00:22:55.799Z,101127.63
2023-05-17T00:25:24.880Z,101126.50
2023-05-17T00:27:53.967Z,101127.69
2023-05-17T00:30:23.197Z,101127.25
2023-05-17T00:32:52.474Z,101121.56
2023-05-17T00:35:21.975Z,101119.81
2023-05-17T00:37:51.240Z,101116.66
2023-05-17T00:40:20.452Z,101111.38
2023-05-17T00:42:49.668Z,101122.22
2023-05-17T00:45:18.729Z,101118.78
2023-05-17T00:47:47.972Z,101126.28
2023-05-17T00:50:17.422Z,101120.09
2023-05-17T00:52:47.724Z,101112.63
2023-05-17T00:55:16.950Z,101112.06
2023-05-17T00:57:46.258Z,101115.94
2023-05-17T01:00:15.525Z,101118.03
2023-05-17T01:02:45.567Z,101115.25
2023-05-17T01:05:14.796Z,101119.00
2023-05-17T01:07:43.909Z,101118.53
2023-05-17T01:10:13.495Z,101119.38
2023-05-17T01:13:07.459Z,101127.47
2023-05-17T01:15:44.248Z,101121.56
2023-05-17T01:18:53.954Z,101126.88
2023-05-17T01:21:37.396Z,101127.00
2023-05-17T01:24:42.237Z,101120.94
2023-05-17T01:27:13.913Z,101118.63
2023-05-17T01:29:47.150Z,101116.50
2023-05-17T01:32:17.446Z,101121.97
2023-05-17T01:34:46.788Z,101116.25
2023-05-17T01:37:15.873Z,101110.41
2023-05-17T01:39:46.007Z,101106.66
2023-05-17T01:42:23.292Z,101102.94
2023-05-17T01:45:06.514Z,101094.03
2023-05-17T01:47:46.971Z,101089.50
2023-05-17T01:50:18.852Z,101082.50
2023-05-17T01:53:00.689Z,101078.97
2023-05-17T01:55:42.851Z,101082.84
2023-05-17T01:58:13.898Z,101083.69
2023-05-17T02:00:46.300Z,101079.00
2023-05-17T02:03:24.585Z,101084.31
2023-05-17T02:05:54.884Z,101073.78
2023-05-17T02:08:24.312Z,101083.19
2023-05-17T02:10:54.308Z,101077.59
2023-05-17T02:13:28.036Z,101076.38
2023-05-17T02:16:05.284Z,101083.38
2023-05-17T02:18:36.614Z,101077.22
2023-05-17T02:21:06.284Z,101072.59
2023-05-17T02:23:36.064Z,101074.22
2023-05-17T02:26:05.398Z,101073.03
2023-05-17T02:28:36.216Z,101079.56
2023-05-17T02:31:05.360Z,101080.09
2023-05-17T02:33:34.782Z,101088.22
2023-05-17T02:36:03.997Z,101081.53
2023-05-17T02:38:33.055Z,101087.78
2023-05-17T02:41:02.531Z,101089.66
2023-05-17T02:43:33.553Z,101094.13
2023-05-17T02:46:02.630Z,101093.44
2023-05-17T02:48:31.688Z,101094.75
2023-05-17T02:51:00.818Z,101093.63
2023-05-17T02:53:29.793Z,101099.56
2023-05-17T02:55:59.222Z,101097.63
2023-05-17T02:58:28.665Z,101093.56
2023-05-17T03:00:57.952Z,101092.66
2023-05-17T03:03:27.933Z,101096.47
2023-05-17T03:06:02.477Z,101095.88
2023-05-17T03:08:32.245Z,101100.63
2023-05-17T03:11:03.143Z,101104.03
2023-05-17T03:13:32.680Z,101108.78
2023-05-17T03:16:03.430Z,101105.78
2023-05-17T03:18:32.941Z,101103.13
2023-05-17T03:21:02.765Z,101109.13
2023-05-17T03:23:32.025Z,101110.19
2023-05-17T03:26:02.892Z,101115.38
2023-05-17T03:28:36.509Z,101109.56
2023-05-17T03:31:05.837Z,101112.06
2023-05-17T03:33:36.118Z,101113.31
2023-05-17T03:36:05.606Z,101114.75
2023-05-17T03:38:34.674Z,101117.41
2023-05-17T03:41:05.481Z,101117.38
2023-05-17T03:43:34.859Z,101116.88
2023-05-17T03:46:03.936Z,101123.91
2023-05-17T03:48:35.312Z,101115.06
2023-05-17T03:51:06.754Z,101119.63
2023-05-17T03:53:41.935Z,101123.22
2023-05-17T03:56:12.318Z,101114.69
2023-05-17T03:58:41.450Z,101123.72
2023-05-17T04:01:10.512Z,101121.06
2023-05-17T04:03:40.705Z,101121.44
2023-05-17T04:06:11.009Z,101124.84
2023-05-17T04:08:40.973Z,101133.31
2023-05-17T04:11:14.746Z,101132.66
2023-05-17T04:13:44.891Z,101134.78
2023-05-17T04:16:14.242Z,101124.28
2023-05-17T04:18:44.264Z,101123.06
2023-05-17T04:21:14.318Z,101126.34
2023-05-17T04:23:43.457Z,101128.50
2023-05-17T04:26:12.493Z,101131.72
2023-05-17T04:28:42.107Z,101136.06
2023-05-17T04:31:12.140Z,101137.88
2023-05-17T04:33:41.562Z,101137.19
2023-05-17T04:36:10.651Z,101142.84
2023-05-17T04:38:41.207Z,101143.78
2023-05-17T04:41:13.218Z,101147.22
2023-05-17T04:43:42.917Z,101149.06
2023-05-17T04:46:19.658Z,101148.13
2023-05-17T04:48:48.971Z,101142.50
2023-05-17T04:51:18.417Z,101137.88
2023-05-17T04:53:47.528Z,101144.44
2023-05-17T04:56:19.754Z,101136.41
2023-05-17T04:58:49.603Z,101135.97
2023-05-17T05:01:20.349Z,101136.41
2023-05-17T05:03:49.338Z,101138.91
2023-05-17T05:06:19.016Z,101140.72
2023-05-17T05:08:48.442Z,101147.66
2023-05-17T05:11:17.705Z,101139.78
2023-05-17T05:13:47.086Z,101146.28
2023-05-17T05:16:16.824Z,101150.53
2023-05-17T05:18:47.278Z,101150.53
2023-05-17T05:21:16.393Z,101142.84
2023-05-17T05:23:45.401Z,101151.66
2023-05-17T05:26:16.046Z,101145.00
2023-05-17T05:28:44.986Z,101142.38
2023-05-17T05:31:14.152Z,101149.94
2023-05-17T05:33:49.367Z,101150.53
2023-05-17T05:36:18.561Z,101144.03
2023-05-17T05:38:49.842Z,101155.63
2023-05-17T05:41:18.820Z,101141.53
2023-05-17T05:43:48.037Z,101141.06
2023-05-17T05:46:17.149Z,101151.53
2023-05-17T05:48:46.179Z,101141.53
2023-05-17T05:51:16.071Z,101144.09
2023-05-17T05:53:46.744Z,101144.22
2023-05-17T05:56:15.926Z,101138.75
2023-05-17T05:58:45.938Z,101138.38
2023-05-17T06:01:15.377Z,101126.03
2023-05-17T06:03:44.459Z,101135.91
2023-05-17T06:06:13.533Z,101136.28
2023-05-17T06:08:42.998Z,101123.00
2023-05-17T06:11:12.304Z,101131.69
2023-05-17T06:13:41.466Z,101118.25
2023-05-17T06:16:10.508Z,101119.47
2023-05-17T06:18:39.869Z,101113.09
2023-05-17T06:21:08.972Z,101107.09
2023-05-17T06:23:37.911Z,101103.94
2023-05-17T06:26:11.288Z,101115.22
2023-05-17T06:28:40.466Z,101120.50
2023-05-17T06:31:09.394Z,101126.81
2023-05-17T06:33:38.455Z,101137.28
2023-05-17T06:36:07.995Z,101131.09
2023-05-17T06:38:39.209Z,101128.84
2023-05-17T06:41:10.247Z,101123.09
2023-05-17T06:43:39.250Z,101124.16
2023-05-17T06:46:08.227Z,101127.50
2023-05-17T06:48:37.330Z,101133.66
2023-05-17T06:51:06.453Z,101137.16
2023-05-17T06:53:35.641Z,101128.53
2023-05-17T06:56:04.730Z,101134.50
2023-05-17T06:58:33.849Z,101138.47
2023-05-17T07:01:03.004Z,101140.44
2023-05-17T07:03:32.009Z,101141.88
2023-05-17T07:06:01.629Z,101143.91
2023-05-17T07:08:30.679Z,101148.72
2023-05-17T07:10:59.598Z,101146.63
2023-05-17T07:13:28.832Z,101148.38
2023-05-17T07:15:57.838Z,101163.91
2023-05-17T07:18:26.909Z,101156.09
2023-05-17T07:20:56.526Z,101159.88
2023-05-17T07:23:25.592Z,101159.94
2023-05-17T07:25:54.755Z,101163.88
2023-05-17T07:28:23.957Z,101158.59
2023-05-17T07:30:53.024Z,101163.19
2023-05-17T07:33:22.162Z,101161.06
2023-05-17T07:35:51.139Z,101163.63
2023-05-17T07:38:20.082Z,101164.84
2023-05-17T07:40:49.072Z,101159.50
2023-05-17T07:43:17.976Z,101160.66
2023-05-17T07:45:47.034Z,101156.50
2023-05-17T07:48:16.020Z,101161.19
2023-05-17T07:50:45.663Z,101162.91
2023-05-17T07:53:14.646Z,101151.84
2023-05-17T07:55:44.262Z,101159.72
2023-05-17T07:58:13.260Z,101163.16
2023-05-17T08:00:43.365Z,101151.19
2023-05-17T08:03:12.850Z,101153.25
2023-05-17T08:05:43.228Z,101148.81
2023-05-17T08:08:12.340Z,101154.31
2023-05-17T08:10:41.354Z,101151.78
2023-05-17T08:13:10.407Z,101150.91
2023-05-17T08:15:39.405Z,101152.50
2023-05-17T08:18:08.539Z,101161.09
2023-05-17T08:20:37.702Z,101151.19
2023-05-17T08:23:07.788Z,101149.09
2023-05-17T08:25:37.037Z,101145.03
2023-05-17T08:28:06.246Z,101145.38
2023-05-17T08:30:35.153Z,101142.25
2023-05-17T08:33:04.204Z,101142.09
2023-05-17T08:35:33.619Z,101139.59
2023-05-17T08:38:02.832Z,101146.97
2023-05-17T08:40:32.582Z,101136.00
2023-05-17T08:43:03.377Z,101131.53
2023-05-17T08:45:33.058Z,101136.19
2023-05-17T08:48:02.318Z,101134.09
2023-05-17T08:50:32.199Z,101137.31
2023-05-17T08:53:02.914Z,101129.00
2023-05-17T08:55:33.966Z,101124.94
2023-05-17T08:58:04.912Z,101129.03
2023-05-17T09:00:35.771Z,101121.66
2023-05-17T09:03:04.898Z,101122.66
2023-05-17T09:05:34.070Z,101120.28
2023-05-17T09:08:03.758Z,101110.75
2023-05-17T09:10:32.846Z,101111.69
2023-05-17T09:13:01.888Z,101112.44
2023-05-17T09:15:35.059Z,101109.16
2023-05-17T09:18:04.284Z,101107.50
2023-05-17T09:20:37.585Z,101112.69
2023-05-17T09:23:15.479Z,101109.34
2023-05-17T09:25:51.200Z,101102.34
2023-05-17T09:28:21.444Z,101102.13
2023-05-17T09:30:50.925Z,101103.16
2023-05-17T09:33:22.812Z,101086.00
2023-05-17T09:35:52.328Z,101083.28
2023-05-17T09:38:28.438Z,101081.72
2023-05-17T09:40:57.595Z,101094.28
2023-05-17T09:43:27.494Z,101096.53
2023-05-17T09:46:00.308Z,101097.66
2023-05-17T09:48:29.379Z,101092.59
2023-05-17T09:50:58.389Z,101094.38
2023-05-17T09:53:32.698Z,101096.19
2023-05-17T09:56:04.043Z,101087.25
2023-05-17T09:58:38.770Z,101090.22
2023-05-17T10:01:09.933Z,101085.78
2023-05-17T10:03:39.938Z,101092.88
2023-05-17T10:06:13.424Z,101091.19
2023-05-17T10:08:54.284Z,101087.66
2023-05-17T10:11:35.176Z,101096.13
2023-05-17T10:14:12.973Z,101108.78
2023-05-17T10:16:43.857Z,101100.50
2023-05-17T10:19:13.536Z,101100.16
2023-05-17T10:21:44.150Z,101112.94
2023-05-17T10:24:14.196Z,101104.75
2023-05-17T10:26:43.786Z,101102.69
2023-05-17T10:29:13.987Z,101106.19
2023-05-17T10:31:45.174Z,101092.56
2023-05-17T10:34:17.610Z,101092.56
2023-05-17T10:36:47.352Z,101097.38
2023-05-17T10:39:17.431Z,101103.38
2023-05-17T10:41:49.119Z,101107.09
2023-05-17T10:44:18.697Z,101098.25
2023-05-17T10:47:00.468Z,101101.38
2023-05-17T10:49:34.477Z,101101.41
2023-05-17T10:52:18.670Z,101095.19
2023-05-17T10:54:51.282Z,101103.84
2023-05-17T10:57:49.160Z,101094.69
2023-05-17T11:00:22.937Z,101085.59
2023-05-17T11:02:51.941Z,101092.78
2023-05-17T11:05:28.726Z,101096.66
2023-05-17T11:08:20.946Z,101098.34
2023-05-17T11:11:11.565Z,101102.28
2023-05-17T11:13:56.057Z,101096.03
2023-05-17T11:16:35.736Z,101103.50
2023-05-17T11:19:13.073Z,101090.78
2023-05-17T11:21:49.373Z,101088.66
2023-05-17T11:24:27.591Z,101091.06
2023-05-17T11:26:59.049Z,101085.25
2023-05-17T11:29:31.924Z,101085.91
2023-05-17T11:32:06.866Z,101088.31
2023-05-17T11:34:36.727Z,101087.47
2023-05-17T11:37:11.228Z,101091.34
2023-05-17T11:40:22.687Z,101087.44
2023-05-17T11:42:52.886Z,101088.47
2023-05-17T11:45:23.746Z,101078.03
2023-05-17T11:47:54.831Z,101078.75
2023-05-17T11:50:24.342Z,101082.75
2023-05-17T11:52:59.056Z,101084.31
2023-05-17T11:55:28.793Z,101084.34
2023-05-17T11:57:58.349Z,101085.47
2023-05-17T12:00:28.761Z,101093.03
2023-05-17T12:02:58.642Z,101093.06
2023-05-17T12:05:30.667Z,101095.53
2023-05-17T12:07:59.750Z,101088.69
2023-05-17T12:10:32.835Z,101093.91
2023-05-17T12:13:04.799Z,101089.91
2023-05-17T12:15:33.960Z,101087.47
2023-05-17T12:18:03.538Z,101093.91
2023-05-17T12:20:33.828Z,101079.53
2023-05-17T12:23:02.898Z,101083.63
2023-05-17T12:25:33.565Z,101080.44
2023-05-17T12:28:23.190Z,101089.97
2023-05-17T12:30:59.341Z,101080.41
2023-05-17T12:33:29.362Z,101071.66
2023-05-17T12:35:58.954Z,101076.41
2023-05-17T12:38:33.866Z,101086.38
2023-05-17T12:41:07.646Z,101087.19
2023-05-17T12:43:38.546Z,101082.03
2023-05-17T12:46:14.885Z,101080.47
2023-05-17T12:48:44.731Z,101087.63
2023-05-17T12:51:24.548Z,101087.63
2023-05-17T12:54:00.495Z,101086.78
2023-05-17T12:56:30.737Z,101081.63
2023-05-17T12:59:08.870Z,101081.13
2023-05-17T13:01:40.868Z,101082.75
2023-05-17T13:04:10.807Z,101078.41
2023-05-17T13:06:54.643Z,101077.25
2023-05-17T13:09:25.850Z,101064.06
2023-05-17T13:12:08.827Z,101071.34
2023-05-17T13:14:39.593Z,101071.69
2023-05-17T13:17:33.286Z,101074.88
2023-05-17T13:20:02.858Z,101075.25
2023-05-17T13:22:32.208Z,101074.94
2023-05-17T13:25:01.219Z,101076.88
2023-05-17T13:27:30.428Z,101078.03
2023-05-17T13:30:00.607Z,101081.97
2023-05-17T13:32:29.680Z,101082.81
2023-05-17T13:35:00.524Z,101079.00
2023-05-17T13:37:29.762Z,101080.56
2023-05-17T13:39:58.728Z,101076.53
2023-05-17T13:42:27.726Z,101078.13
2023-05-17T13:44:57.009Z,101081.31
2023-05-17T13:47:26.504Z,101081.31
2023-05-17T13:49:55.610Z,101078.19
2023-05-17T13:52:26.071Z,101080.56
2023-05-17T13:54:55.696Z,101069.41
2023-05-17T13:57:24.907Z,101070.78
2023-05-17T13:59:53.953Z,101078.00
2023-05-17T14:02:23.147Z,101072.22
2023-05-17T14:04:52.157Z,101082.03
2023-05-17T14:07:21.407Z,101086.91
2023-05-17T14:09:50.484Z,101082.66
2023-05-17T14:12:19.421Z,101080.22
2023-05-17T14:14:48.441Z,101086.75
2023-05-17T14:17:17.466Z,101080.91
2023-05-17T14:19:46.549Z,101073.00
2023-05-17T14:22:18.698Z,101064.63
2023-05-17T14:24:49.124Z,101062.97
2023-05-17T14:27:18.408Z,101061.28
2023-05-17T14:29:47.339Z,101054.91
2023-05-17T14:32:16.425Z,101050.78
2023-05-17T14:34:45.859Z,101067.94
2023-05-17T14:37:15.640Z,101083.03
2023-05-17T14:39:55.222Z,101087.19
2023-05-17T14:42:33.669Z,101083.22
2023-05-17T14:45:03.040Z,101076.91
2023-05-17T14:47:32.966Z,101077.25
2023-05-17T14:50:04.109Z,101071.34
2023-05-17T14:52:33.333Z,101060.91
2023-05-17T14:55:02.764Z,101062.34
2023-05-17T14:57:32.315Z,101065.75
2023-05-17T15:00:01.875Z,101059.28
2023-05-17T15:02:31.746Z,101067.22
2023-05-17T15:05:04.426Z,101063.03
2023-05-17T15:07:35.192Z,101065.50
2023-05-17T15:10:06.111Z,101064.38
2023-05-17T15:12:35.190Z,101064.31
2023-05-17T15:15:04.491Z,101061.25
2023-05-17T15:17:33.741Z,101060.28
2023-05-17T15:20:02.731Z,101063.03
2023-05-17T15:22:31.749Z,101057.94
2023-05-17T15:25:00.919Z,101050.81
2023-05-17T15:27:30.433Z,101038.94
2023-05-17T15:29:59.357Z,101055.41
2023-05-17T15:32:28.438Z,101055.34
2023-05-17T15:34:58.480Z,101068.06
2023-05-17T15:37:27.588Z,101058.88
2023-05-17T15:39:56.693Z,101052.88
2023-05-17T15:42:25.717Z,101051.81
2023-05-17T15:44:54.670Z,101051.03
2023-05-17T15:47:31.539Z,101045.44
2023-05-17T15:50:08.861Z,101042.94
2023-05-17T15:52:37.855Z,101046.66
2023-05-17T15:55:07.414Z,101052.97
2023-05-17T15:57:36.572Z,101044.81
2023-05-17T16:00:06.801Z,101054.56
2023-05-17T16:02:36.956Z,101056.03
2023-05-17T16:05:06.362Z,101054.44
2023-05-17T16:07:35.241Z,101067.63
2023-05-17T16:10:04.511Z,101065.81
2023-05-17T16:12:33.459Z,101053.22
2023-05-17T16:15:03.173Z,101057.94
2023-05-17T16:17:32.313Z,101057.94
2023-05-17T16:20:01.625Z,101059.53
2023-05-17T16:22:30.755Z,101057.41
2023-05-17T16:24:59.912Z,101057.47
2023-05-17T16:27:29.413Z,101048.53
2023-05-17T16:29:58.646Z,101052.03
2023-05-17T16:32:27.913Z,101044.97
2023-05-17T16:34:57.114Z,101031.59
2023-05-17T16:37:26.128Z,101041.13
2023-05-17T16:39:55.248Z,101029.66
2023-05-17T16:42:24.250Z,101039.88
2023-05-17T16:44:53.341Z,101032.69
2023-05-17T16:47:27.541Z,101029.88
2023-05-17T16:49:57.407Z,101025.34
2023-05-17T16:52:26.604Z,101020.19
2023-05-17T16:55:02.384Z,101023.69
2023-05-17T16:57:32.963Z,101016.28
2023-05-17T17:00:02.569Z,101016.56
2023-05-17T17:02:32.927Z,101007.81
2023-05-17T17:05:01.865Z,101011.75
2023-05-17T17:07:30.775Z,101011.63
2023-05-17T17:09:59.749Z,101014.88
2023-05-17T17:12:28.871Z,101007.31
2023-05-17T17:14:58.111Z,101000.50
2023-05-17T17:17:27.918Z,101005.28
2023-05-17T17:19:57.266Z,100999.50
2023-05-17T17:22:26.209Z,100992.38
2023-05-17T17:24:55.859Z,101000.22
2023-05-17T17:27:24.897Z,100995.44
2023-05-17T17:29:56.088Z,100994.22
2023-05-17T17:32:25.580Z,101003.00
2023-05-17T17:34:54.572Z,101000.84
2023-05-17T17:37:23.795Z,101001.84
2023-05-17T17:39:52.738Z,100994.69
2023-05-17T17:42:21.793Z,100992.25
2023-05-17T17:44:50.701Z,100990.69
2023-05-17T17:47:19.895Z,100987.69
2023-05-17T17:49:49.023Z,100979.56
2023-05-17T17:52:17.926Z,100990.50
2023-05-17T17:54:46.932Z,100991.00
2023-05-17T17:57:16.326Z,100986.59
2023-05-17T17:59:45.331Z,100984.81
2023-05-17T18:02:14.283Z,100978.22
2023-05-17T18:04:43.377Z,100979.13
2023-05-17T18:07:14.886Z,100973.56
2023-05-17T18:09:44.351Z,100979.53
2023-05-17T18:12:13.372Z,100975.59
2023-05-17T18:14:42.354Z,100967.72
2023-05-17T18:17:11.549Z,100964.34
2023-05-17T18:19:40.561Z,100960.41
2023-05-17T18:22:09.476Z,100957.34
2023-05-17T18:24:38.436Z,100953.16
2023-05-17T18:27:07.544Z,100952.00
2023-05-17T18:29:36.851Z,100946.41
2023-05-17T18:32:06.342Z,100944.00
2023-05-17T18:34:36.161Z,100941.25
2023-05-17T18:37:05.793Z,100940.47
2023-05-17T18:39:34.720Z,100940.72
2023-05-17T18:42:04.839Z,100939.59
2023-05-17T18:44:35.624Z,100936.06
2023-05-17T18:47:04.796Z,100928.50
2023-05-17T18:49:33.807Z,100925.72
2023-05-17T18:52:03.145Z,100925.59
2023-05-17T18:54:32.125Z,100922.09
2023-05-17T18:57:01.329Z,100921.16
2023-05-17T18:59:30.494Z,100915.19
2023-05-17T19:01:59.817Z,100923.50
2023-05-17T19:04:30.560Z,100919.41
2023-05-17T19:07:01.200Z,100913.91
2023-05-17T19:09:30.763Z,100909.53
2023-05-17T19:11:59.906Z,100900.19
2023-05-17T19:14:29.251Z,100894.22
2023-05-17T19:16:58.401Z,100896.75
2023-05-17T19:19:27.619Z,100895.81
2023-05-17T19:21:56.640Z,100892.03
2023-05-17T19:24:25.886Z,100889.53
2023-05-17T19:26:54.825Z,100887.00
2023-05-17T19:29:23.893Z,100884.16
2023-05-17T19:31:53.063Z,100876.94
2023-05-17T19:34:22.085Z,100874.06
2023-05-17T19:36:51.390Z,100863.69
2023-05-17T19:39:20.462Z,100864.59
2023-05-17T19:41:49.442Z,100866.22
2023-05-17T19:44:18.678Z,100860.25
2023-05-17T19:46:47.935Z,100862.44
2023-05-17T19:49:17.434Z,100860.06
2023-05-17T19:51:47.510Z,100854.97
2023-05-17T19:54:17.331Z,100850.31
2023-05-17T19:56:46.851Z,100846.56
2023-05-17T19:59:15.819Z,100842.13
2023-05-17T20:01:44.870Z,100836.09
2023-05-17T20:04:14.238Z,100833.38
2023-05-17T20:06:43.244Z,100825.66
2023-05-17T20:09:12.518Z,100827.88
2023-05-17T20:11:41.712Z,100823.41
2023-05-17T20:14:13.018Z,100820.88
2023-05-17T20:16:42.132Z,100818.09
2023-05-17T20:19:11.744Z,100810.56
2023-05-17T20:21:41.869Z,100808.59
2023-05-17T20:24:11.000Z,100805.94
2023-05-17T20:26:40.384Z,100805.09
2023-05-17T20:29:12.398Z,100797.91
2023-05-17T20:31:41.820Z,100799.50
2023-05-17T20:35:11.410Z,100785.59
2023-05-17T20:37:31.661Z,100792.75
2023-05-17T20:40:01.130Z,100776.72
2023-05-17T20:42:34.733Z,100776.94
2023-05-17T20:45:07.329Z,100772.94
2023-05-17T20:47:37.527Z,100758.50
2023-05-17T20:50:07.177Z,100772.19
2023-05-17T20:52:39.423Z,100762.78
2023-05-17T20:55:10.362Z,100763.16
2023-05-17T20:57:39.641Z,100759.16
2023-05-17T21:00:12.610Z,100748.19
2023-05-17T21:02:52.958Z,100747.97
2023-05-17T21:05:36.841Z,100747.19
2023-05-17T21:08:08.355Z,100736.75
2023-05-17T21:10:40.191Z,100737.06
2023-05-17T21:13:10.505Z,100736.09
2023-05-17T21:15:41.039Z,100734.06
2023-05-17T21:18:12.079Z,100725.66
2023-05-17T21:20:41.227Z,100725.66
2023-05-17T21:23:10.462Z,100717.56
2023-05-17T21:25:45.474Z,100721.19
2023-05-17T21:28:30.231Z,100710.31
2023-05-17T21:31:19.181Z,100702.97
2023-05-17T21:33:49.135Z,100710.88
2023-05-17T21:36:18.526Z,100701.06
2023-05-17T21:38:48.522Z,100700.50
2023-05-17T21:41:17.790Z,100692.56
2023-05-17T21:43:47.223Z,100688.47
2023-05-17T21:46:16.550Z,100695.97
2023-05-17T21:48:48.018Z,100687.50
2023-05-17T21:51:17.699Z,100690.19
2023-05-17T21:53:47.024Z,100687.41
2023-05-17T21:56:19.868Z,100679.41
2023-05-17T21:58:49.463Z,100675.38
2023-05-17T22:01:25.019Z,100670.47
2023-05-17T22:03:55.965Z,100659.72
2023-05-17T22:06:28.348Z,100665.38
2023-05-17T22:08:57.808Z,100663.97
2023-05-17T22:11:28.495Z,100667.44
2023-05-17T22:13:58.990Z,100648.53
2023-05-17T22:16:28.524Z,100652.66
2023-05-17T22:19:01.220Z,100651.47
2023-05-17T22:21:32.317Z,100649.78
2023-05-17T22:24:01.679Z,100650.81
2023-05-17T22:26:31.220Z,100642.19
2023-05-17T22:29:01.702Z,100647.03
2023-05-17T22:31:31.643Z,100638.22
2023-05-17T22:34:01.016Z,100634.22
2023-05-17T22:36:33.115Z,100633.41
2023-05-17T22:39:03.348Z,100633.81
2023-05-17T22:41:32.510Z,100623.59
2023-05-17T22:44:01.937Z,100625.25
2023-05-17T22:46:33.674Z,100623.91
2023-05-17T22:49:06.457Z,100622.66
2023-05-17T22:51:36.859Z,100610.16
2023-05-17T22:54:06.649Z,100602.19
2023-05-17T22:56:35.964Z,100606.53
2023-05-17T22:59:05.641Z,100600.44
2023-05-17T23:01:35.776Z,100603.69
2023-05-17T23:04:14.246Z,100592.88
2023-05-17T23:06:48.792Z,100595.19
2023-05-17T23:09:18.344Z,100593.84
2023-05-17T23:11:53.986Z,100583.78
2023-05-17T23:14:26.209Z,100581.63
2023-05-17T23:16:55.419Z,100579.84
2023-05-17T23:19:27.583Z,100573.75
2023-05-17T23:22:03.660Z,100577.22
2023-05-17T23:24:39.563Z,100571.03
2023-05-17T23:27:11.565Z,100568.91
2023-05-17T23:29:46.600Z,100561.69
2023-05-17T23:32:16.023Z,100561.69
2023-05-17T23:34:52.413Z,100563.72
2023-05-17T23:37:21.909Z,100570.50
2023-05-17T23:39:51.824Z,100559.09
2023-05-17T23:42:23.185Z,100560.94
2023-05-17T23:44:52.255Z,100556.75
2023-05-17T23:47:21.326Z,100554.97
2023-05-17T23:49:50.770Z,100556.25
2023-05-17T23:52:20.039Z,100557.03
2023-05-17T23:54:49.370Z,100563.63
2023-05-17T23:57:18.284Z,100552.88
2023-05-17T23:59:47.193Z,100553.91
